首页
METAR-TAF:

METAR-TAF

机场 :

Hunter Army Airfield / Fort Stewart

薩凡納, 喬治亞, 美国

纬度: 32-01N, 经度: 081-09W, 海拔: 13米

当前天气观测

该预报发布于40分钟前的15:56 UTC
风速8节,风向北转东北
温度 14°C
湿度 67%
气压 1026 hPa
能見度: 16.1公里
少量云层高于7000英尺

METAR: KSVN 081556Z AUTO 02008KT 10SM FEW070 14/08 A3031 RMK AO2 SLPNO T01360078 $

时间: 11:36 (16:36 UTC)

预报

该预报发布于3小时和36分钟前的13:00 UTC
预报有效从08日的 13点(UTC)到 09日的 19点(UTC)
风速9节,风向东北
能見度: 8000
散云层高于600英尺
轻雾
成为
从 08日的 14点(UTC)到 08日的 15点(UTC)
风速12节,风向东北
能见度10公里或以上
散云层高于1300英尺
成为
从 09日的 05点(UTC)到 09日的 06点(UTC)
风速6节,风向多变
能見度: 8000
多云层高于1200英尺
轻雾
短暂存在
从 09日的 06点(UTC)到 09日的 12点(UTC)
能見度: 3200
轻雾
成为
从 09日的 11点(UTC)到 09日的 12点(UTC)
风速6节,风向多变
能见度10公里或以上
散云层高于1200英尺

TAF: KSVN 081300Z 0813/0919 04009KT 8000 BR SCT006 QNH3023INS BECMG 0814/0815 05012KT 9999 NSW SCT013 QNH3020INS BECMG 0905/0906 VRB06KT 8000 BR BKN012 QNH3012INS TEMPO 0906/0912 3200 BR BECMG 0911/0912 VRB06KT 9999 NSW SCT012 QNH3003INS TX17/0820Z TN08/0813Z

超过4000个机场的气象观测和天气预报(METAR&TAF报告)。

可查询的气象台以黄色和红色小点在地图上表示。

将鼠标移到小点上方,可查看气象台名称。

然后点击查看天气观测和预报。

如需切换地图:点击带黑十字的绿色按钮放大地图;点击带横线的绿色按钮缩小地图;或者点击绿色箭头查看邻近地区的地图。


METAR-TAF: